sensor_id;sensor_type;location;lat;lon;timestamp;temperature;humidity
51557;DHT22;38766;53.194;5.532;2023-04-26T00:00:21;6.80;99.90
51557;DHT22;38766;53.194;5.532;2023-04-26T00:02:47;6.80;99.90
51557;DHT22;38766;53.194;5.532;2023-04-26T00:05:13;6.80;99.90
51557;DHT22;38766;53.194;5.532;2023-04-26T00:07:40;6.80;99.90
51557;DHT22;38766;53.194;5.532;2023-04-26T00:10:07;6.80;99.90
51557;DHT22;38766;53.194;5.532;2023-04-26T00:12:34;6.80;99.90
51557;DHT22;38766;53.194;5.532;2023-04-26T00:15:00;6.80;99.90
51557;DHT22;38766;53.194;5.532;2023-04-26T00:17:26;6.80;99.90
51557;DHT22;38766;53.194;5.532;2023-04-26T00:19:52;6.90;99.90
51557;DHT22;38766;53.194;5.532;2023-04-26T00:22:17;6.90;99.90
51557;DHT22;38766;53.194;5.532;2023-04-26T00:24:43;7.00;99.90
51557;DHT22;38766;53.194;5.532;2023-04-26T00:27:08;7.10;99.90
51557;DHT22;38766;53.194;5.532;2023-04-26T00:29:35;6.90;99.90
51557;DHT22;38766;53.194;5.532;2023-04-26T00:32:02;7.00;99.90
51557;DHT22;38766;53.194;5.532;2023-04-26T00:34:32;6.90;99.90
51557;DHT22;38766;53.194;5.532;2023-04-26T00:36:58;6.90;99.90
51557;DHT22;38766;53.194;5.532;2023-04-26T00:39:24;6.90;99.90
51557;DHT22;38766;53.194;5.532;2023-04-26T00:41:50;6.90;99.90
51557;DHT22;38766;53.194;5.532;2023-04-26T00:44:15;6.90;99.90
51557;DHT22;38766;53.194;5.532;2023-04-26T00:46:41;6.90;99.90
51557;DHT22;38766;53.194;5.532;2023-04-26T00:49:07;6.80;99.90
51557;DHT22;38766;53.194;5.532;2023-04-26T00:51:32;6.80;99.90
51557;DHT22;38766;53.194;5.532;2023-04-26T00:53:59;6.80;99.90
51557;DHT22;38766;53.194;5.532;2023-04-26T00:56:24;6.70;99.90
51557;DHT22;38766;53.194;5.532;2023-04-26T00:58:50;6.70;99.90
51557;DHT22;38766;53.194;5.532;2023-04-26T01:01:16;6.70;99.90
51557;DHT22;38766;53.194;5.532;2023-04-26T01:03:42;6.70;99.90
51557;DHT22;38766;53.194;5.532;2023-04-26T01:06:10;6.70;99.90
51557;DHT22;38766;53.194;5.532;2023-04-26T01:08:35;6.60;99.90
51557;DHT22;38766;53.194;5.532;2023-04-26T01:11:01;6.60;99.90
51557;DHT22;38766;53.194;5.532;2023-04-26T01:13:28;6.60;99.90
51557;DHT22;38766;53.194;5.532;2023-04-26T01:15:56;6.60;99.90
51557;DHT22;38766;53.194;5.532;2023-04-26T01:18:23;6.60;99.90
51557;DHT22;38766;53.194;5.532;2023-04-26T01:20:49;6.60;99.90
51557;DHT22;38766;53.194;5.532;2023-04-26T01:23:17;6.60;99.90
51557;DHT22;38766;53.194;5.532;2023-04-26T01:25:42;6.50;99.90
51557;DHT22;38766;53.194;5.532;2023-04-26T01:28:08;6.60;99.90
51557;DHT22;38766;53.194;5.532;2023-04-26T01:30:34;6.60;99.90
51557;DHT22;38766;53.194;5.532;2023-04-26T01:33:00;6.50;99.90
51557;DHT22;38766;53.194;5.532;2023-04-26T01:35:26;6.50;99.90
51557;DHT22;38766;53.194;5.532;2023-04-26T01:37:51;6.50;99.90
51557;DHT22;38766;53.194;5.532;2023-04-26T01:40:17;6.50;99.90
51557;DHT22;38766;53.194;5.532;2023-04-26T01:42:43;6.50;99.90
51557;DHT22;38766;53.194;5.532;2023-04-26T01:45:08;6.40;99.90
51557;DHT22;38766;53.194;5.532;2023-04-26T01:47:34;6.50;99.90
51557;DHT22;38766;53.194;5.532;2023-04-26T01:50:00;6.50;99.90
51557;DHT22;38766;53.194;5.532;2023-04-26T01:52:26;6.50;99.90
51557;DHT22;38766;53.194;5.532;2023-04-26T01:54:51;6.50;99.90
51557;DHT22;38766;53.194;5.532;2023-04-26T01:57:17;6.50;99.90
51557;DHT22;38766;53.194;5.532;2023-04-26T01:59:43;6.50;99.90
51557;DHT22;38766;53.194;5.532;2023-04-26T02:02:08;6.50;99.90
51557;DHT22;38766;53.194;5.532;2023-04-26T02:04:34;6.60;99.90
51557;DHT22;38766;53.194;5.532;2023-04-26T02:07:00;6.50;99.90
51557;DHT22;38766;53.194;5.532;2023-04-26T02:09:26;6.60;99.90
51557;DHT22;38766;53.194;5.532;2023-04-26T02:11:52;6.50;99.90
51557;DHT22;38766;53.194;5.532;2023-04-26T02:14:17;6.50;99.90
51557;DHT22;38766;53.194;5.532;2023-04-26T02:16:43;6.40;99.90
51557;DHT22;38766;53.194;5.532;2023-04-26T02:19:09;6.40;99.90
51557;DHT22;38766;53.194;5.532;2023-04-26T02:21:55;6.40;99.90
51557;DHT22;38766;53.194;5.532;2023-04-26T02:24:22;6.40;99.90
51557;DHT22;38766;53.194;5.532;2023-04-26T02:26:48;6.30;99.90
51557;DHT22;38766;53.194;5.532;2023-04-26T02:29:14;6.30;99.90
51557;DHT22;38766;53.194;5.532;2023-04-26T02:31:40;6.40;99.90
51557;DHT22;38766;53.194;5.532;2023-04-26T02:34:05;6.30;99.90
51557;DHT22;38766;53.194;5.532;2023-04-26T02:36:31;6.30;99.90
51557;DHT22;38766;53.194;5.532;2023-04-26T02:38:58;6.30;99.90
51557;DHT22;38766;53.194;5.532;2023-04-26T02:41:24;6.30;99.90
51557;DHT22;38766;53.194;5.532;2023-04-26T02:43:50;6.30;99.90
51557;DHT22;38766;53.194;5.532;2023-04-26T02:46:16;6.30;99.90
51557;DHT22;38766;53.194;5.532;2023-04-26T02:48:41;6.40;99.90
51557;DHT22;38766;53.194;5.532;2023-04-26T02:51:07;6.30;99.90
51557;DHT22;38766;53.194;5.532;2023-04-26T02:53:33;6.40;99.90
51557;DHT22;38766;53.194;5.532;2023-04-26T02:55:58;6.30;99.90
51557;DHT22;38766;53.194;5.532;2023-04-26T02:58:25;6.30;99.90
51557;DHT22;38766;53.194;5.532;2023-04-26T03:00:51;6.30;99.90
51557;DHT22;38766;53.194;5.532;2023-04-26T03:03:19;6.30;99.90
51557;DHT22;38766;53.194;5.532;2023-04-26T03:05:44;6.30;99.90
51557;DHT22;38766;53.194;5.532;2023-04-26T03:08:10;6.20;99.90
51557;DHT22;38766;53.194;5.532;2023-04-26T03:10:36;6.10;99.90
51557;DHT22;38766;53.194;5.532;2023-04-26T03:13:06;6.00;99.90
51557;DHT22;38766;53.194;5.532;2023-04-26T03:15:32;6.00;99.90
51557;DHT22;38766;53.194;5.532;2023-04-26T03:17:57;5.90;99.90
51557;DHT22;38766;53.194;5.532;2023-04-26T03:20:23;5.80;99.90
51557;DHT22;38766;53.194;5.532;2023-04-26T03:22:50;5.80;99.90
51557;DHT22;38766;53.194;5.532;2023-04-26T03:25:16;5.90;99.90
51557;DHT22;38766;53.194;5.532;2023-04-26T03:27:41;5.90;99.90
51557;DHT22;38766;53.194;5.532;2023-04-26T03:30:07;6.00;99.90
51557;DHT22;38766;53.194;5.532;2023-04-26T03:32:33;6.10;99.90
51557;DHT22;38766;53.194;5.532;2023-04-26T03:34:58;6.10;99.90
51557;DHT22;38766;53.194;5.532;2023-04-26T03:37:25;6.10;99.90
51557;DHT22;38766;53.194;5.532;2023-04-26T03:39:50;6.10;99.90
51557;DHT22;38766;53.194;5.532;2023-04-26T03:42:19;6.20;99.90
51557;DHT22;38766;53.194;5.532;2023-04-26T03:44:44;6.20;99.90
51557;DHT22;38766;53.194;5.532;2023-04-26T03:47:10;6.20;99.90
51557;DHT22;38766;53.194;5.532;2023-04-26T03:49:35;6.20;99.90
51557;DHT22;38766;53.194;5.532;2023-04-26T03:52:01;6.20;99.90
51557;DHT22;38766;53.194;5.532;2023-04-26T03:54:27;6.20;99.90
51557;DHT22;38766;53.194;5.532;2023-04-26T03:56:52;6.30;99.90
51557;DHT22;38766;53.194;5.532;2023-04-26T03:59:18;6.20;99.90
51557;DHT22;38766;53.194;5.532;2023-04-26T04:01:44;6.20;99.90
51557;DHT22;38766;53.194;5.532;2023-04-26T04:04:10;6.20;99.90
51557;DHT22;38766;53.194;5.532;2023-04-26T04:06:35;6.20;99.90
51557;DHT22;38766;53.194;5.532;2023-04-26T04:09:03;6.10;99.90
51557;DHT22;38766;53.194;5.532;2023-04-26T04:11:30;6.10;99.90
51557;DHT22;38766;53.194;5.532;2023-04-26T04:13:55;6.10;99.90
51557;DHT22;38766;53.194;5.532;2023-04-26T04:16:21;6.20;99.90
51557;DHT22;38766;53.194;5.532;2023-04-26T04:18:47;6.10;99.90
51557;DHT22;38766;53.194;5.532;2023-04-26T04:21:12;6.10;99.90
51557;DHT22;38766;53.194;5.532;2023-04-26T04:23:38;6.10;99.90
51557;DHT22;38766;53.194;5.532;2023-04-26T04:26:04;6.10;99.90
51557;DHT22;38766;53.194;5.532;2023-04-26T04:28:31;6.10;99.90
51557;DHT22;38766;53.194;5.532;2023-04-26T04:30:57;6.00;99.90
51557;DHT22;38766;53.194;5.532;2023-04-26T04:33:22;6.00;99.90
51557;DHT22;38766;53.194;5.532;2023-04-26T04:35:50;6.00;99.90
51557;DHT22;38766;53.194;5.532;2023-04-26T04:38:16;6.00;99.90
51557;DHT22;38766;53.194;5.532;2023-04-26T04:40:42;5.90;99.90
51557;DHT22;38766;53.194;5.532;2023-04-26T04:43:08;5.90;99.90
51557;DHT22;38766;53.194;5.532;2023-04-26T04:45:34;6.00;99.90
51557;DHT22;38766;53.194;5.532;2023-04-26T04:48:01;6.00;99.90
51557;DHT22;38766;53.194;5.532;2023-04-26T04:50:29;6.00;99.90
51557;DHT22;38766;53.194;5.532;2023-04-26T04:52:56;6.00;99.90
51557;DHT22;38766;53.194;5.532;2023-04-26T04:55:22;6.00;99.90
51557;DHT22;38766;53.194;5.532;2023-04-26T04:57:47;6.10;99.90
51557;DHT22;38766;53.194;5.532;2023-04-26T05:00:13;6.00;99.90
51557;DHT22;38766;53.194;5.532;2023-04-26T05:02:40;6.10;99.90
51557;DHT22;38766;53.194;5.532;2023-04-26T05:05:06;6.10;99.90
51557;DHT22;38766;53.194;5.532;2023-04-26T05:07:32;6.10;99.90
51557;DHT22;38766;53.194;5.532;2023-04-26T05:09:58;6.10;99.90
51557;DHT22;38766;53.194;5.532;2023-04-26T05:12:24;6.10;99.90
51557;DHT22;38766;53.194;5.532;2023-04-26T05:14:50;6.10;99.90
51557;DHT22;38766;53.194;5.532;2023-04-26T05:17:16;6.10;99.90
51557;DHT22;38766;53.194;5.532;2023-04-26T05:19:41;6.10;99.90
51557;DHT22;38766;53.194;5.532;2023-04-26T05:22:07;6.00;99.90
51557;DHT22;38766;53.194;5.532;2023-04-26T05:24:33;6.10;99.90
51557;DHT22;38766;53.194;5.532;2023-04-26T05:26:59;6.20;99.90
51557;DHT22;38766;53.194;5.532;2023-04-26T05:29:30;6.20;99.90
51557;DHT22;38766;53.194;5.532;2023-04-26T05:31:56;6.30;99.90
51557;DHT22;38766;53.194;5.532;2023-04-26T05:34:22;6.40;99.90
51557;DHT22;38766;53.194;5.532;2023-04-26T05:36:48;6.40;99.90
51557;DHT22;38766;53.194;5.532;2023-04-26T05:39:14;6.50;99.90
51557;DHT22;38766;53.194;5.532;2023-04-26T05:41:40;6.50;99.90
51557;DHT22;38766;53.194;5.532;2023-04-26T05:44:06;6.50;99.90
51557;DHT22;38766;53.194;5.532;2023-04-26T05:46:32;6.60;99.90
51557;DHT22;38766;53.194;5.532;2023-04-26T05:48:57;6.70;99.90
51557;DHT22;38766;53.194;5.532;2023-04-26T05:51:23;6.70;99.90
51557;DHT22;38766;53.194;5.532;2023-04-26T05:53:49;6.70;99.90
51557;DHT22;38766;53.194;5.532;2023-04-26T05:56:15;6.80;99.90
51557;DHT22;38766;53.194;5.532;2023-04-26T05:58:40;6.80;99.90
51557;DHT22;38766;53.194;5.532;2023-04-26T06:01:06;6.80;99.90
51557;DHT22;38766;53.194;5.532;2023-04-26T06:03:33;6.80;99.90
51557;DHT22;38766;53.194;5.532;2023-04-26T06:05:58;6.90;99.90
51557;DHT22;38766;53.194;5.532;2023-04-26T06:08:24;6.90;99.90
51557;DHT22;38766;53.194;5.532;2023-04-26T06:10:50;6.90;99.90
51557;DHT22;38766;53.194;5.532;2023-04-26T06:13:16;7.00;99.90
51557;DHT22;38766;53.194;5.532;2023-04-26T06:15:42;7.00;99.90
51557;DHT22;38766;53.194;5.532;2023-04-26T06:18:07;7.10;99.90
51557;DHT22;38766;53.194;5.532;2023-04-26T06:20:33;7.10;99.90
51557;DHT22;38766;53.194;5.532;2023-04-26T06:22:59;7.10;99.90
51557;DHT22;38766;53.194;5.532;2023-04-26T06:25:24;7.20;99.90
51557;DHT22;38766;53.194;5.532;2023-04-26T06:27:50;7.20;99.90
51557;DHT22;38766;53.194;5.532;2023-04-26T06:30:16;7.30;99.90
51557;DHT22;38766;53.194;5.532;2023-04-26T06:32:42;7.30;99.90
51557;DHT22;38766;53.194;5.532;2023-04-26T06:35:07;7.30;99.90
51557;DHT22;38766;53.194;5.532;2023-04-26T06:37:33;7.30;99.90
51557;DHT22;38766;53.194;5.532;2023-04-26T06:39:59;7.50;99.90
51557;DHT22;38766;53.194;5.532;2023-04-26T06:42:26;7.50;99.90
51557;DHT22;38766;53.194;5.532;2023-04-26T06:44:52;7.80;99.90
51557;DHT22;38766;53.194;5.532;2023-04-26T06:47:17;8.10;99.90
51557;DHT22;38766;53.194;5.532;2023-04-26T06:49:43;8.40;99.90
51557;DHT22;38766;53.194;5.532;2023-04-26T06:52:08;8.60;99.90
51557;DHT22;38766;53.194;5.532;2023-04-26T06:54:34;8.90;99.90
51557;DHT22;38766;53.194;5.532;2023-04-26T06:57:00;9.10;99.90
51557;DHT22;38766;53.194;5.532;2023-04-26T06:59:26;9.10;99.90
51557;DHT22;38766;53.194;5.532;2023-04-26T07:01:52;9.40;99.90
51557;DHT22;38766;53.194;5.532;2023-04-26T07:04:18;9.40;99.90
51557;DHT22;38766;53.194;5.532;2023-04-26T07:06:45;9.50;99.90
51557;DHT22;38766;53.194;5.532;2023-04-26T07:09:11;9.50;99.90
51557;DHT22;38766;53.194;5.532;2023-04-26T07:11:37;9.40;99.90
51557;DHT22;38766;53.194;5.532;2023-04-26T07:14:03;9.30;99.90
51557;DHT22;38766;53.194;5.532;2023-04-26T07:16:29;9.20;99.90
51557;DHT22;38766;53.194;5.532;2023-04-26T07:18:56;9.10;99.90
51557;DHT22;38766;53.194;5.532;2023-04-26T07:21:25;9.00;99.90
51557;DHT22;38766;53.194;5.532;2023-04-26T07:23:54;9.00;99.90
51557;DHT22;38766;53.194;5.532;2023-04-26T07:26:21;8.90;99.90
51557;DHT22;38766;53.194;5.532;2023-04-26T07:28:47;9.00;99.90
51557;DHT22;38766;53.194;5.532;2023-04-26T07:31:12;9.00;99.90
51557;DHT22;38766;53.194;5.532;2023-04-26T07:33:38;9.00;99.90
51557;DHT22;38766;53.194;5.532;2023-04-26T07:36:04;8.90;99.90
51557;DHT22;38766;53.194;5.532;2023-04-26T07:38:30;8.90;99.90
51557;DHT22;38766;53.194;5.532;2023-04-26T07:40:55;8.90;99.90
51557;DHT22;38766;53.194;5.532;2023-04-26T07:43:22;8.90;99.90
51557;DHT22;38766;53.194;5.532;2023-04-26T07:45:47;8.90;99.90
51557;DHT22;38766;53.194;5.532;2023-04-26T07:48:13;9.00;99.90
51557;DHT22;38766;53.194;5.532;2023-04-26T07:50:39;9.10;99.90
51557;DHT22;38766;53.194;5.532;2023-04-26T07:53:04;9.30;99.90
51557;DHT22;38766;53.194;5.532;2023-04-26T07:55:30;9.40;99.90
51557;DHT22;38766;53.194;5.532;2023-04-26T07:57:56;9.60;99.90
51557;DHT22;38766;53.194;5.532;2023-04-26T08:00:22;9.70;99.90
51557;DHT22;38766;53.194;5.532;2023-04-26T08:02:48;9.80;99.90
51557;DHT22;38766;53.194;5.532;2023-04-26T08:05:15;9.80;99.90
51557;DHT22;38766;53.194;5.532;2023-04-26T08:07:42;9.90;99.90
51557;DHT22;38766;53.194;5.532;2023-04-26T08:10:08;9.80;99.90
51557;DHT22;38766;53.194;5.532;2023-04-26T08:12:35;9.70;99.90
51557;DHT22;38766;53.194;5.532;2023-04-26T08:15:01;9.70;99.90
51557;DHT22;38766;53.194;5.532;2023-04-26T08:17:29;9.70;99.90
51557;DHT22;38766;53.194;5.532;2023-04-26T08:19:55;9.70;99.90
51557;DHT22;38766;53.194;5.532;2023-04-26T08:22:21;9.70;99.90
51557;DHT22;38766;53.194;5.532;2023-04-26T08:24:48;9.70;99.90
51557;DHT22;38766;53.194;5.532;2023-04-26T08:27:15;9.60;99.90
51557;DHT22;38766;53.194;5.532;2023-04-26T08:29:41;9.70;99.90
51557;DHT22;38766;53.194;5.532;2023-04-26T08:32:07;9.70;99.90
51557;DHT22;38766;53.194;5.532;2023-04-26T08:34:33;9.70;99.90
51557;DHT22;38766;53.194;5.532;2023-04-26T08:36:58;9.90;99.90
51557;DHT22;38766;53.194;5.532;2023-04-26T08:39:24;10.00;99.90
51557;DHT22;38766;53.194;5.532;2023-04-26T08:41:52;10.10;99.90
51557;DHT22;38766;53.194;5.532;2023-04-26T08:44:22;10.20;99.90
51557;DHT22;38766;53.194;5.532;2023-04-26T08:47:19;10.30;99.90
51557;DHT22;38766;53.194;5.532;2023-04-26T08:49:52;10.30;99.90
51557;DHT22;38766;53.194;5.532;2023-04-26T08:52:26;10.40;99.90
51557;DHT22;38766;53.194;5.532;2023-04-26T08:54:53;10.40;99.90
51557;DHT22;38766;53.194;5.532;2023-04-26T08:57:21;10.40;99.90
51557;DHT22;38766;53.194;5.532;2023-04-26T08:59:48;10.40;99.90
51557;DHT22;38766;53.194;5.532;2023-04-26T09:02:21;10.40;99.90
51557;DHT22;38766;53.194;5.532;2023-04-26T09:04:48;10.20;99.90
51557;DHT22;38766;53.194;5.532;2023-04-26T09:07:31;10.00;99.90
51557;DHT22;38766;53.194;5.532;2023-04-26T09:09:58;10.00;99.90
51557;DHT22;38766;53.194;5.532;2023-04-26T09:12:24;9.90;99.90
51557;DHT22;38766;53.194;5.532;2023-04-26T09:14:50;9.80;99.90
51557;DHT22;38766;53.194;5.532;2023-04-26T09:17:30;9.80;99.90
51557;DHT22;38766;53.194;5.532;2023-04-26T09:19:57;9.80;99.90
51557;DHT22;38766;53.194;5.532;2023-04-26T09:22:34;9.90;99.90
51557;DHT22;38766;53.194;5.532;2023-04-26T09:25:01;10.00;99.90
51557;DHT22;38766;53.194;5.532;2023-04-26T09:27:39;10.10;99.90
51557;DHT22;38766;53.194;5.532;2023-04-26T09:33:01;10.30;99.90
51557;DHT22;38766;53.194;5.532;2023-04-26T09:35:31;10.40;99.90
51557;DHT22;38766;53.194;5.532;2023-04-26T09:38:02;10.30;99.90
51557;DHT22;38766;53.194;5.532;2023-04-26T09:40:36;10.40;99.90
51557;DHT22;38766;53.194;5.532;2023-04-26T09:43:08;10.40;99.90
51557;DHT22;38766;53.194;5.532;2023-04-26T09:45:48;10.50;99.90
51557;DHT22;38766;53.194;5.532;2023-04-26T09:48:28;10.60;99.90
51557;DHT22;38766;53.194;5.532;2023-04-26T09:51:08;10.80;99.90
51557;DHT22;38766;53.194;5.532;2023-04-26T09:53:37;11.00;99.90
51557;DHT22;38766;53.194;5.532;2023-04-26T09:56:07;11.00;99.90
51557;DHT22;38766;53.194;5.532;2023-04-26T09:58:33;10.90;99.90
51557;DHT22;38766;53.194;5.532;2023-04-26T10:00:59;10.70;99.90
51557;DHT22;38766;53.194;5.532;2023-04-26T10:03:25;10.60;99.90
51557;DHT22;38766;53.194;5.532;2023-04-26T10:05:52;10.50;99.90
51557;DHT22;38766;53.194;5.532;2023-04-26T10:08:18;10.30;99.90
51557;DHT22;38766;53.194;5.532;2023-04-26T10:10:44;10.30;99.90
51557;DHT22;38766;53.194;5.532;2023-04-26T10:13:10;10.30;99.90
51557;DHT22;38766;53.194;5.532;2023-04-26T10:15:38;10.30;99.90
51557;DHT22;38766;53.194;5.532;2023-04-26T10:18:04;10.50;99.90
51557;DHT22;38766;53.194;5.532;2023-04-26T10:20:30;10.60;99.90
51557;DHT22;38766;53.194;5.532;2023-04-26T10:22:58;10.60;99.90
51557;DHT22;38766;53.194;5.532;2023-04-26T10:25:34;10.60;99.90
51557;DHT22;38766;53.194;5.532;2023-04-26T10:28:00;10.60;99.90
51557;DHT22;38766;53.194;5.532;2023-04-26T10:30:28;10.60;99.90
51557;DHT22;38766;53.194;5.532;2023-04-26T10:35:26;10.80;99.90
51557;DHT22;38766;53.194;5.532;2023-04-26T10:40:37;11.10;99.90
51557;DHT22;38766;53.194;5.532;2023-04-26T10:45:42;11.40;99.90
51557;DHT22;38766;53.194;5.532;2023-04-26T10:56:56;11.60;99.90
51557;DHT22;38766;53.194;5.532;2023-04-26T10:59:09;11.80;99.90
51557;DHT22;38766;53.194;5.532;2023-04-26T11:01:37;11.90;99.90
51557;DHT22;38766;53.194;5.532;2023-04-26T11:04:08;11.90;99.90
51557;DHT22;38766;53.194;5.532;2023-04-26T11:06:50;12.00;99.90
51557;DHT22;38766;53.194;5.532;2023-04-26T11:09:35;12.00;99.90
51557;DHT22;38766;53.194;5.532;2023-04-26T11:12:12;12.00;99.90
51557;DHT22;38766;53.194;5.532;2023-04-26T11:14:39;12.00;99.90
51557;DHT22;38766;53.194;5.532;2023-04-26T11:17:06;12.10;99.90
51557;DHT22;38766;53.194;5.532;2023-04-26T11:19:33;12.30;99.90
51557;DHT22;38766;53.194;5.532;2023-04-26T11:21:59;12.30;99.60
51557;DHT22;38766;53.194;5.532;2023-04-26T11:24:34;12.40;98.90
51557;DHT22;38766;53.194;5.532;2023-04-26T11:27:10;12.60;98.70
51557;DHT22;38766;53.194;5.532;2023-04-26T11:29:37;12.70;98.80
51557;DHT22;38766;53.194;5.532;2023-04-26T11:32:03;12.90;98.50
51557;DHT22;38766;53.194;5.532;2023-04-26T11:34:33;13.10;98.20
51557;DHT22;38766;53.194;5.532;2023-04-26T11:37:04;13.30;98.30
51557;DHT22;38766;53.194;5.532;2023-04-26T11:39:36;13.40;98.40
51557;DHT22;38766;53.194;5.532;2023-04-26T11:42:05;13.60;98.20
51557;DHT22;38766;53.194;5.532;2023-04-26T11:44:32;13.40;98.10
51557;DHT22;38766;53.194;5.532;2023-04-26T11:47:01;13.40;98.10
51557;DHT22;38766;53.194;5.532;2023-04-26T11:49:30;13.30;98.10
51557;DHT22;38766;53.194;5.532;2023-04-26T11:51:57;13.30;98.00
51557;DHT22;38766;53.194;5.532;2023-04-26T11:54:41;13.30;98.10
51557;DHT22;38766;53.194;5.532;2023-04-26T11:57:18;13.40;98.10
51557;DHT22;38766;53.194;5.532;2023-04-26T11:59:44;13.50;98.10
51557;DHT22;38766;53.194;5.532;2023-04-26T12:02:11;13.60;97.80
51557;DHT22;38766;53.194;5.532;2023-04-26T12:04:37;13.50;97.30
51557;DHT22;38766;53.194;5.532;2023-04-26T12:07:04;13.50;97.70
51557;DHT22;38766;53.194;5.532;2023-04-26T12:09:31;13.50;98.00
51557;DHT22;38766;53.194;5.532;2023-04-26T12:12:02;13.50;98.00
51557;DHT22;38766;53.194;5.532;2023-04-26T12:14:33;13.40;97.90
51557;DHT22;38766;53.194;5.532;2023-04-26T12:16:59;13.30;98.10
51557;DHT22;38766;53.194;5.532;2023-04-26T12:19:27;13.20;98.00
51557;DHT22;38766;53.194;5.532;2023-04-26T12:21:53;13.20;97.90
51557;DHT22;38766;53.194;5.532;2023-04-26T12:24:27;13.10;98.20
51557;DHT22;38766;53.194;5.532;2023-04-26T12:26:59;13.20;98.50
51557;DHT22;38766;53.194;5.532;2023-04-26T12:29:25;13.20;97.90
51557;DHT22;38766;53.194;5.532;2023-04-26T12:31:52;13.20;97.60
51557;DHT22;38766;53.194;5.532;2023-04-26T12:34:18;13.20;97.80
51557;DHT22;38766;53.194;5.532;2023-04-26T12:36:43;13.20;97.50
51557;DHT22;38766;53.194;5.532;2023-04-26T12:39:10;13.20;97.10
51557;DHT22;38766;53.194;5.532;2023-04-26T12:41:38;13.20;97.40
51557;DHT22;38766;53.194;5.532;2023-04-26T12:44:04;13.20;96.80
51557;DHT22;38766;53.194;5.532;2023-04-26T12:46:30;13.10;95.80
51557;DHT22;38766;53.194;5.532;2023-04-26T12:48:56;13.00;95.30
51557;DHT22;38766;53.194;5.532;2023-04-26T12:51:22;13.00;95.20
51557;DHT22;38766;53.194;5.532;2023-04-26T12:53:47;13.00;94.80
51557;DHT22;38766;53.194;5.532;2023-04-26T12:56:13;13.00;94.40
51557;DHT22;38766;53.194;5.532;2023-04-26T12:58:40;13.00;94.20
51557;DHT22;38766;53.194;5.532;2023-04-26T13:01:06;13.00;93.90
51557;DHT22;38766;53.194;5.532;2023-04-26T13:03:31;13.00;94.00
51557;DHT22;38766;53.194;5.532;2023-04-26T13:05:57;13.10;93.70
51557;DHT22;38766;53.194;5.532;2023-04-26T13:08:23;13.10;93.30
51557;DHT22;38766;53.194;5.532;2023-04-26T13:10:49;13.10;93.10
51557;DHT22;38766;53.194;5.532;2023-04-26T13:13:14;13.00;93.30
51557;DHT22;38766;53.194;5.532;2023-04-26T13:15:40;12.90;94.10
51557;DHT22;38766;53.194;5.532;2023-04-26T13:18:06;12.90;94.00
51557;DHT22;38766;53.194;5.532;2023-04-26T13:20:31;12.80;94.00
51557;DHT22;38766;53.194;5.532;2023-04-26T13:22:57;12.80;94.20
51557;DHT22;38766;53.194;5.532;2023-04-26T13:25:23;12.70;94.30
51557;DHT22;38766;53.194;5.532;2023-04-26T13:27:48;12.70;94.30
51557;DHT22;38766;53.194;5.532;2023-04-26T13:30:16;12.60;94.40
51557;DHT22;38766;53.194;5.532;2023-04-26T13:32:41;12.60;94.50
51557;DHT22;38766;53.194;5.532;2023-04-26T13:35:07;12.60;94.70
51557;DHT22;38766;53.194;5.532;2023-04-26T13:37:33;12.70;94.90
51557;DHT22;38766;53.194;5.532;2023-04-26T13:39:59;12.90;94.90
51557;DHT22;38766;53.194;5.532;2023-04-26T13:42:24;12.90;94.80
51557;DHT22;38766;53.194;5.532;2023-04-26T13:44:50;13.00;94.70
51557;DHT22;38766;53.194;5.532;2023-04-26T13:47:16;13.10;94.80
51557;DHT22;38766;53.194;5.532;2023-04-26T13:49:42;13.10;94.80
51557;DHT22;38766;53.194;5.532;2023-04-26T13:52:10;13.00;94.80
51557;DHT22;38766;53.194;5.532;2023-04-26T13:54:36;12.90;94.60
51557;DHT22;38766;53.194;5.532;2023-04-26T13:57:04;12.80;94.80
51557;DHT22;38766;53.194;5.532;2023-04-26T13:59:30;12.60;95.10
51557;DHT22;38766;53.194;5.532;2023-04-26T14:01:56;12.50;95.50
51557;DHT22;38766;53.194;5.532;2023-04-26T14:04:21;12.40;95.60
51557;DHT22;38766;53.194;5.532;2023-04-26T14:06:47;12.30;95.60
51557;DHT22;38766;53.194;5.532;2023-04-26T14:09:13;12.30;95.80
51557;DHT22;38766;53.194;5.532;2023-04-26T14:11:38;12.40;95.60
51557;DHT22;38766;53.194;5.532;2023-04-26T14:14:04;12.50;95.20
51557;DHT22;38766;53.194;5.532;2023-04-26T14:16:30;12.50;95.30
51557;DHT22;38766;53.194;5.532;2023-04-26T14:18:56;12.70;95.90
51557;DHT22;38766;53.194;5.532;2023-04-26T14:21:21;12.80;95.70
51557;DHT22;38766;53.194;5.532;2023-04-26T14:23:47;12.80;94.80
51557;DHT22;38766;53.194;5.532;2023-04-26T14:26:13;12.80;94.80
51557;DHT22;38766;53.194;5.532;2023-04-26T14:28:39;12.90;94.80
51557;DHT22;38766;53.194;5.532;2023-04-26T14:31:05;12.90;94.30
51557;DHT22;38766;53.194;5.532;2023-04-26T14:33:31;13.00;94.10
51557;DHT22;38766;53.194;5.532;2023-04-26T14:35:57;13.00;93.60
51557;DHT22;38766;53.194;5.532;2023-04-26T14:38:22;12.90;93.20
51557;DHT22;38766;53.194;5.532;2023-04-26T14:40:48;12.70;93.10
51557;DHT22;38766;53.194;5.532;2023-04-26T14:43:14;12.60;92.90
51557;DHT22;38766;53.194;5.532;2023-04-26T14:45:42;12.40;92.90
51557;DHT22;38766;53.194;5.532;2023-04-26T14:48:09;12.30;94.50
51557;DHT22;38766;53.194;5.532;2023-04-26T14:50:36;12.10;96.90
51557;DHT22;38766;53.194;5.532;2023-04-26T14:53:02;11.80;99.90
51557;DHT22;38766;53.194;5.532;2023-04-26T14:55:29;11.60;99.90
51557;DHT22;38766;53.194;5.532;2023-04-26T14:57:54;11.40;99.90
51557;DHT22;38766;53.194;5.532;2023-04-26T15:00:20;11.20;99.90
51557;DHT22;38766;53.194;5.532;2023-04-26T15:02:47;11.10;99.90
51557;DHT22;38766;53.194;5.532;2023-04-26T15:05:13;11.00;99.90
51557;DHT22;38766;53.194;5.532;2023-04-26T15:07:39;11.00;99.90
51557;DHT22;38766;53.194;5.532;2023-04-26T15:10:06;11.00;99.90
51557;DHT22;38766;53.194;5.532;2023-04-26T15:12:33;10.90;99.90
51557;DHT22;38766;53.194;5.532;2023-04-26T15:14:58;10.90;99.90
51557;DHT22;38766;53.194;5.532;2023-04-26T15:17:24;10.80;99.90
51557;DHT22;38766;53.194;5.532;2023-04-26T15:19:50;10.80;99.90
51557;DHT22;38766;53.194;5.532;2023-04-26T15:22:16;10.70;99.90
51557;DHT22;38766;53.194;5.532;2023-04-26T15:24:41;10.70;99.90
51557;DHT22;38766;53.194;5.532;2023-04-26T15:27:07;10.60;99.90
51557;DHT22;38766;53.194;5.532;2023-04-26T15:29:36;10.60;99.90
51557;DHT22;38766;53.194;5.532;2023-04-26T15:32:02;10.60;99.90
51557;DHT22;38766;53.194;5.532;2023-04-26T15:34:28;10.50;99.90
51557;DHT22;38766;53.194;5.532;2023-04-26T15:36:57;10.40;99.90
51557;DHT22;38766;53.194;5.532;2023-04-26T15:39:24;10.40;99.90
51557;DHT22;38766;53.194;5.532;2023-04-26T15:41:50;10.20;99.90
51557;DHT22;38766;53.194;5.532;2023-04-26T15:44:16;10.30;99.90
51557;DHT22;38766;53.194;5.532;2023-04-26T15:46:41;10.20;99.90
51557;DHT22;38766;53.194;5.532;2023-04-26T15:49:07;10.20;99.90
51557;DHT22;38766;53.194;5.532;2023-04-26T15:51:32;10.20;99.90
51557;DHT22;38766;53.194;5.532;2023-04-26T15:53:58;10.20;99.90
51557;DHT22;38766;53.194;5.532;2023-04-26T15:56:24;10.20;99.90